createdAt,value
2023-05-19T00:00:50.970Z,193.41
2023-05-19T00:01:50.103Z,194.60
2023-05-19T00:02:50.162Z,197.67
2023-05-19T00:03:50.130Z,194.50
2023-05-19T00:04:50.142Z,196.59
2023-05-19T00:05:50.172Z,194.17
2023-05-19T00:06:50.210Z,195.40
2023-05-19T00:07:50.252Z,195.59
2023-05-19T00:08:50.267Z,195.09
2023-05-19T00:09:50.327Z,197.75
2023-05-19T00:10:50.287Z,196.74
2023-05-19T00:11:50.305Z,191.12
2023-05-19T00:12:57.968Z,193.42
2023-05-19T00:13:50.326Z,193.50
2023-05-19T00:14:50.314Z,193.97
2023-05-19T00:15:50.345Z,195.61
2023-05-19T00:16:50.314Z,195.97
2023-05-19T00:17:50.343Z,193.97
2023-05-19T00:18:50.318Z,196.64
2023-05-19T00:19:50.262Z,197.91
2023-05-19T00:20:50.311Z,197.58
2023-05-19T00:21:50.313Z,195.59
2023-05-19T00:22:50.274Z,195.24
2023-05-19T00:23:50.282Z,195.89
2023-05-19T00:24:50.267Z,196.83
2023-05-19T00:25:50.279Z,197.49
2023-05-19T00:26:50.275Z,200.00
2023-05-19T00:27:50.254Z,194.40
2023-05-19T00:28:50.293Z,192.22
2023-05-19T00:29:50.225Z,197.61
2023-05-19T00:30:50.288Z,197.72
2023-05-19T00:31:50.284Z,198.29
2023-05-19T00:32:50.219Z,196.89
2023-05-19T00:33:50.174Z,198.57
2023-05-19T00:34:50.173Z,195.94
2023-05-19T00:35:50.184Z,196.34
2023-05-19T00:36:50.183Z,197.33
2023-05-19T00:37:50.159Z,200.00
2023-05-19T00:38:50.155Z,200.17
2023-05-19T00:39:50.196Z,198.17
2023-05-19T00:40:50.224Z,197.89
2023-05-19T00:41:50.303Z,200.23
2023-05-19T00:42:50.298Z,198.51
2023-05-19T00:43:50.293Z,201.81
2023-05-19T00:44:50.383Z,195.94
2023-05-19T00:45:50.348Z,195.52
2023-05-19T00:46:50.473Z,194.98
2023-05-19T00:47:50.449Z,197.34
2023-05-19T00:48:50.445Z,198.65
2023-05-19T00:49:50.510Z,199.09
2023-05-19T00:50:50.480Z,198.37
2023-05-19T00:51:50.548Z,195.90
2023-05-19T00:52:50.556Z,193.99
2023-05-19T00:53:50.558Z,200.13
2023-05-19T00:54:50.577Z,197.62
2023-05-19T00:55:50.597Z,195.33
2023-05-19T00:56:50.610Z,196.57
2023-05-19T00:57:50.702Z,196.00
2023-05-19T00:58:50.715Z,193.76
2023-05-19T00:59:50.738Z,191.39
2023-05-19T01:00:50.818Z,193.02
2023-05-19T01:01:50.774Z,192.96
2023-05-19T01:02:50.845Z,193.56
2023-05-19T01:03:50.862Z,196.75
2023-05-19T01:04:50.837Z,198.77
2023-05-19T01:05:50.893Z,195.13
2023-05-19T01:06:50.918Z,199.52
2023-05-19T01:07:50.935Z,195.03
2023-05-19T01:08:50.953Z,192.06
2023-05-19T01:09:50.955Z,190.89
2023-05-19T01:10:50.983Z,190.12
2023-05-19T01:11:51.074Z,192.90
2023-05-19T01:12:51.058Z,192.25
2023-05-19T01:13:51.115Z,193.73
2023-05-19T01:14:51.117Z,194.29
2023-05-19T01:15:51.171Z,194.56
2023-05-19T01:16:51.161Z,194.54
2023-05-19T01:17:51.263Z,192.69
2023-05-19T01:18:51.290Z,195.89
2023-05-19T01:19:51.263Z,196.70
2023-05-19T01:20:51.326Z,194.33
2023-05-19T01:21:51.338Z,195.08
2023-05-19T01:22:51.312Z,191.41
2023-05-19T01:23:51.377Z,188.72
2023-05-19T01:24:51.386Z,189.94
2023-05-19T01:25:51.411Z,189.10
2023-05-19T01:26:51.511Z,192.33
2023-05-19T01:27:51.506Z,195.13
2023-05-19T01:28:51.559Z,196.06
2023-05-19T01:29:51.564Z,194.94
2023-05-19T01:30:51.643Z,193.88
2023-05-19T01:31:51.675Z,194.25
2023-05-19T01:32:51.737Z,194.60
2023-05-19T01:33:51.708Z,195.18
2023-05-19T01:34:51.719Z,192.94
2023-05-19T01:35:51.772Z,192.23
2023-05-19T01:36:51.830Z,191.44
2023-05-19T01:37:51.782Z,191.43
2023-05-19T01:38:51.792Z,192.30
2023-05-19T01:39:51.813Z,194.42
2023-05-19T01:40:51.858Z,196.51
2023-05-19T01:41:51.907Z,197.45
2023-05-19T01:42:51.953Z,198.13
2023-05-19T01:43:51.984Z,196.04
2023-05-19T01:44:51.983Z,196.32
2023-05-19T01:45:52.040Z,198.15
2023-05-19T01:46:52.000Z,199.34
2023-05-19T01:47:52.069Z,198.36
2023-05-19T01:48:52.061Z,197.74
2023-05-19T01:49:52.062Z,199.48
2023-05-19T01:50:52.099Z,197.92
2023-05-19T01:51:52.138Z,200.03
2023-05-19T01:52:52.137Z,198.99
2023-05-19T01:53:52.202Z,200.10
2023-05-19T01:54:52.202Z,198.00
2023-05-19T01:55:52.251Z,197.61
2023-05-19T01:56:52.311Z,197.80
2023-05-19T01:57:52.296Z,198.78
2023-05-19T01:58:52.333Z,199.98
2023-05-19T01:59:52.358Z,199.99
2023-05-19T02:00:52.435Z,199.32
2023-05-19T02:01:52.470Z,196.89
2023-05-19T02:03:18.269Z,50.00
2023-05-19T02:04:18.362Z,50.00
2023-05-19T02:05:18.294Z,50.00
2023-05-19T02:06:18.355Z,50.00
2023-05-19T02:07:18.354Z,50.00
2023-05-19T02:08:18.350Z,47.15
2023-05-19T02:09:18.426Z,52.65
2023-05-19T02:10:18.421Z,61.06
2023-05-19T02:11:18.423Z,80.98
2023-05-19T02:12:18.480Z,75.55
2023-05-19T02:13:18.504Z,66.16
2023-05-19T02:14:18.495Z,84.25
2023-05-19T02:15:18.577Z,83.60
2023-05-19T02:16:18.692Z,82.24
2023-05-19T02:17:18.612Z,88.03
2023-05-19T02:18:18.632Z,94.29
2023-05-19T02:19:18.719Z,97.60
2023-05-19T02:20:18.688Z,99.93
2023-05-19T02:21:18.741Z,102.72
2023-05-19T02:22:18.749Z,124.27
2023-05-19T02:23:18.788Z,123.00
2023-05-19T02:24:18.771Z,113.02
2023-05-19T02:25:18.854Z,111.69
2023-05-19T02:26:18.844Z,98.42
2023-05-19T02:27:18.882Z,110.61
2023-05-19T02:28:18.947Z,120.55
2023-05-19T02:29:19.011Z,116.82
2023-05-19T02:30:19.007Z,117.53
2023-05-19T02:31:19.127Z,119.18
2023-05-19T02:32:19.131Z,120.47
2023-05-19T02:33:19.049Z,117.35
2023-05-19T02:34:19.103Z,108.68
2023-05-19T02:35:19.134Z,113.71
2023-05-19T02:36:19.159Z,141.38
2023-05-19T02:37:19.188Z,146.27
2023-05-19T02:38:19.155Z,142.87
2023-05-19T02:39:19.284Z,135.15
2023-05-19T02:40:19.243Z,142.73
2023-05-19T02:41:19.247Z,161.09
2023-05-19T02:42:19.245Z,177.65
2023-05-19T02:43:19.266Z,149.83
2023-05-19T02:44:19.264Z,130.47
2023-05-19T02:45:19.284Z,162.09
2023-05-19T02:46:19.358Z,156.70
2023-05-19T02:47:19.320Z,167.07
2023-05-19T02:48:19.365Z,164.13
2023-05-19T02:49:19.397Z,178.64
2023-05-19T02:50:19.395Z,199.17
2023-05-19T02:51:19.412Z,162.78
2023-05-19T02:52:19.418Z,168.60
2023-05-19T02:53:19.431Z,172.45
2023-05-19T02:54:19.437Z,171.95
2023-05-19T02:55:19.502Z,171.48
2023-05-19T02:56:19.547Z,179.45
2023-05-19T02:57:19.547Z,182.90
2023-05-19T02:58:19.562Z,187.33
2023-05-19T02:59:19.621Z,185.38
2023-05-19T03:00:19.627Z,193.46
2023-05-19T03:01:19.702Z,199.91
2023-05-19T03:02:19.740Z,189.74
2023-05-19T03:03:19.937Z,200.36
2023-05-19T03:04:19.864Z,200.00
2023-05-19T03:05:19.870Z,200.00
2023-05-19T03:06:19.929Z,189.58
2023-05-19T03:07:19.989Z,200.00
2023-05-19T03:08:20.052Z,192.26
2023-05-19T03:09:20.055Z,183.70
2023-05-19T03:10:20.099Z,192.85
2023-05-19T03:11:20.155Z,190.57
2023-05-19T03:12:20.222Z,198.26
2023-05-19T03:13:20.233Z,198.08
2023-05-19T03:14:20.293Z,177.59
2023-05-19T03:15:20.297Z,189.22
2023-05-19T03:16:20.374Z,195.87
2023-05-19T03:17:20.448Z,200.00
2023-05-19T03:18:20.483Z,198.21
2023-05-19T03:19:20.516Z,195.77
2023-05-19T03:20:20.509Z,189.67
2023-05-19T03:21:20.544Z,172.84
2023-05-19T03:22:20.566Z,179.13
2023-05-19T03:23:43.075Z,50.00
2023-05-19T03:24:43.112Z,50.00
2023-05-19T03:25:43.097Z,50.00
2023-05-19T03:26:43.115Z,50.00
2023-05-19T03:27:43.052Z,50.00
2023-05-19T03:28:43.459Z,50.23
2023-05-19T03:29:43.029Z,52.53
2023-05-19T03:30:43.072Z,50.59
2023-05-19T03:31:43.043Z,62.75
2023-05-19T03:32:43.108Z,82.31
2023-05-19T03:33:43.083Z,96.96
2023-05-19T03:34:43.020Z,89.36
2023-05-19T03:35:43.005Z,94.61
2023-05-19T03:36:43.033Z,104.21
2023-05-19T03:37:42.984Z,104.50
2023-05-19T03:38:43.022Z,109.97
2023-05-19T03:39:42.944Z,88.68
2023-05-19T03:40:42.982Z,84.56
2023-05-19T03:41:42.966Z,88.35
2023-05-19T03:42:43.010Z,94.12
2023-05-19T03:43:42.957Z,89.84
2023-05-19T03:44:42.921Z,81.57
2023-05-19T03:45:42.965Z,81.66
2023-05-19T03:46:42.941Z,91.59
2023-05-19T03:47:42.926Z,82.40
2023-05-19T03:48:42.892Z,68.86
2023-05-19T03:49:42.975Z,49.73
2023-05-19T03:50:42.905Z,52.57
2023-05-19T03:51:42.925Z,69.56
2023-05-19T03:52:42.869Z,83.90
2023-05-19T03:53:42.876Z,84.69
2023-05-19T03:54:42.890Z,105.23
2023-05-19T03:55:42.851Z,105.46
2023-05-19T03:56:42.856Z,107.09
2023-05-19T03:57:42.845Z,110.70
2023-05-19T03:58:42.821Z,111.36
2023-05-19T03:59:42.831Z,95.71
2023-05-19T04:00:42.857Z,97.65
2023-05-19T04:01:42.935Z,83.83
2023-05-19T04:02:42.920Z,99.03
2023-05-19T04:03:42.830Z,85.53
2023-05-19T04:04:42.833Z,94.71
2023-05-19T04:05:42.824Z,95.82
2023-05-19T04:06:42.792Z,88.31
2023-05-19T04:07:44.852Z,90.75
2023-05-19T04:08:42.780Z,92.54
2023-05-19T04:09:42.764Z,88.60
2023-05-19T04:10:42.760Z,92.61
2023-05-19T04:11:42.826Z,116.90
2023-05-19T04:12:42.742Z,136.93
2023-05-19T04:13:43.415Z,118.53
2023-05-19T04:14:42.718Z,121.81
2023-05-19T04:15:42.757Z,128.43
2023-05-19T04:16:42.735Z,126.91
2023-05-19T04:17:42.705Z,142.10
2023-05-19T04:18:42.688Z,140.97
2023-05-19T04:19:42.712Z,141.52
2023-05-19T04:20:42.724Z,142.98
2023-05-19T04:21:42.724Z,154.58
2023-05-19T04:22:42.780Z,177.43
2023-05-19T04:23:42.771Z,152.12
2023-05-19T04:24:42.792Z,158.79
2023-05-19T04:25:42.802Z,160.42
2023-05-19T04:26:42.859Z,160.55
2023-05-19T04:27:42.902Z,162.79
2023-05-19T04:28:42.931Z,167.57
2023-05-19T04:29:42.926Z,157.53
2023-05-19T04:30:42.966Z,155.96
2023-05-19T04:31:43.025Z,162.57
2023-05-19T04:32:42.946Z,167.41
2023-05-19T04:33:42.957Z,150.68
2023-05-19T04:34:43.010Z,119.91
2023-05-19T04:35:43.013Z,111.68
2023-05-19T04:36:43.073Z,118.50
2023-05-19T04:37:43.078Z,118.78
2023-05-19T04:38:43.093Z,131.14
2023-05-19T04:39:43.161Z,133.41
2023-05-19T04:40:43.105Z,126.78
2023-05-19T04:41:43.128Z,130.71
2023-05-19T04:42:43.165Z,136.25
2023-05-19T04:43:43.168Z,143.04
2023-05-19T04:44:43.193Z,143.63
2023-05-19T04:45:43.229Z,143.83
2023-05-19T04:46:43.298Z,130.99
2023-05-19T04:47:43.266Z,116.27
2023-05-19T04:48:43.266Z,123.45
2023-05-19T04:49:43.288Z,106.87
2023-05-19T04:50:43.273Z,101.38
2023-05-19T04:51:43.355Z,95.65
2023-05-19T04:52:43.399Z,100.52
2023-05-19T04:53:43.425Z,80.90
2023-05-19T04:54:43.446Z,93.61
2023-05-19T04:55:43.577Z,103.91
2023-05-19T04:56:43.543Z,86.25
2023-05-19T04:57:43.512Z,80.81
2023-05-19T04:58:43.588Z,68.87
2023-05-19T04:59:43.641Z,72.91
2023-05-19T05:00:43.646Z,100.49
2023-05-19T05:01:43.731Z,81.64
2023-05-19T05:02:43.796Z,61.46
2023-05-19T05:03:43.810Z,50.00
2023-05-19T05:04:43.713Z,51.37
2023-05-19T05:05:43.745Z,49.23
2023-05-19T05:06:43.763Z,52.39
2023-05-19T05:07:43.765Z,64.10
2023-05-19T05:08:44.779Z,69.85
2023-05-19T05:09:43.823Z,88.81
2023-05-19T05:10:43.861Z,98.81
2023-05-19T05:11:43.917Z,119.44
2023-05-19T05:12:43.923Z,104.28
2023-05-19T05:13:43.940Z,89.95
2023-05-19T05:14:43.951Z,63.80
2023-05-19T05:15:43.986Z,63.58
2023-05-19T05:16:44.217Z,53.05
2023-05-19T05:17:44.088Z,51.70
2023-05-19T05:18:45.025Z,42.16
2023-05-19T05:19:44.091Z,61.81
2023-05-19T05:20:44.101Z,60.36
2023-05-19T05:21:44.099Z,28.29
2023-05-19T05:22:44.082Z,43.06
2023-05-19T05:23:44.156Z,50.61
2023-05-19T05:24:44.130Z,48.60
2023-05-19T05:25:44.232Z,46.98
2023-05-19T05:26:44.215Z,86.40
2023-05-19T05:27:44.255Z,67.23
2023-05-19T05:28:44.237Z,72.18
2023-05-19T05:29:44.281Z,70.54
2023-05-19T05:30:44.300Z,83.08
2023-05-19T05:31:44.376Z,96.66
2023-05-19T05:32:44.485Z,103.60
2023-05-19T05:33:44.416Z,95.29
2023-05-19T05:34:44.381Z,79.60
2023-05-19T05:35:44.461Z,110.33
2023-05-19T05:36:44.510Z,102.79
2023-05-19T05:37:44.530Z,104.25
2023-05-19T05:38:44.550Z,121.48
2023-05-19T05:39:44.541Z,122.13
2023-05-19T05:40:44.595Z,118.61
2023-05-19T05:41:44.651Z,117.86
2023-05-19T05:42:44.676Z,127.00
2023-05-19T05:43:44.746Z,133.98
2023-05-19T05:44:44.754Z,123.11
2023-05-19T05:45:44.811Z,106.43
2023-05-19T05:46:44.805Z,137.10
2023-05-19T05:47:44.862Z,129.62
2023-05-19T05:48:44.880Z,119.16
2023-05-19T05:49:44.884Z,113.46
2023-05-19T05:50:44.904Z,102.66
2023-05-19T05:51:57.918Z,110.48
2023-05-19T05:52:45.927Z,110.63
2023-05-19T05:53:44.924Z,107.13
2023-05-19T05:54:44.939Z,103.03
2023-05-19T05:55:44.900Z,113.59
2023-05-19T05:56:44.921Z,141.00
2023-05-19T05:57:44.904Z,128.94
2023-05-19T05:58:44.874Z,121.71
2023-05-19T05:59:44.882Z,127.44
2023-05-19T06:00:45.287Z,135.09
2023-05-19T06:01:44.909Z,134.97
2023-05-19T06:02:44.972Z,135.34
2023-05-19T06:03:44.941Z,119.27
2023-05-19T06:04:44.837Z,113.38
2023-05-19T06:05:44.894Z,123.32
2023-05-19T06:06:44.846Z,117.26
2023-05-19T06:07:44.834Z,104.03
2023-05-19T06:08:44.888Z,114.68
2023-05-19T06:09:44.932Z,140.18
2023-05-19T06:10:47.200Z,163.82
2023-05-19T06:11:45.165Z,138.67
2023-05-19T06:12:45.143Z,143.48
2023-05-19T06:13:45.363Z,187.87
2023-05-19T06:14:45.206Z,209.79
2023-05-19T06:15:45.365Z,186.73
2023-05-19T06:16:45.329Z,152.88
2023-05-19T06:17:45.374Z,152.78
2023-05-19T06:18:45.405Z,105.41
2023-05-19T06:19:45.420Z,123.26
2023-05-19T06:20:45.431Z,130.09
2023-05-19T06:21:45.450Z,111.25
2023-05-19T06:22:45.457Z,119.69
2023-05-19T06:23:45.525Z,118.02
2023-05-19T06:24:45.611Z,129.36
2023-05-19T06:25:45.593Z,128.37
2023-05-19T06:26:45.624Z,111.51
2023-05-19T06:27:45.666Z,123.62
2023-05-19T06:28:45.663Z,105.11
2023-05-19T06:29:45.733Z,63.71
2023-05-19T06:30:45.743Z,45.30
2023-05-19T06:31:45.849Z,65.19
2023-05-19T06:32:45.868Z,78.68
2023-05-19T06:33:45.864Z,74.76
2023-05-19T06:34:45.846Z,104.46
2023-05-19T06:35:45.846Z,66.82
2023-05-19T06:36:45.909Z,55.05
2023-05-19T06:37:45.889Z,69.07
2023-05-19T06:38:45.951Z,91.77
2023-05-19T06:39:45.985Z,78.31
2023-05-19T06:40:45.968Z,90.62
2023-05-19T06:41:45.987Z,77.00
2023-05-19T06:42:46.013Z,64.56
2023-05-19T06:43:46.048Z,58.04
2023-05-19T06:44:46.112Z,54.94
2023-05-19T06:45:46.135Z,72.71
2023-05-19T06:46:46.292Z,104.02
2023-05-19T06:47:46.416Z,42.80
2023-05-19T06:48:46.296Z,0.00
2023-05-19T06:49:46.287Z,7.88
2023-05-19T06:50:46.303Z,24.97
2023-05-19T06:51:46.370Z,25.58
2023-05-19T06:52:46.408Z,24.46
2023-05-19T06:53:46.518Z,24.95
2023-05-19T06:54:46.438Z,42.10
2023-05-19T06:55:58.130Z,59.17
2023-05-19T06:56:47.508Z,52.73
2023-05-19T06:57:46.537Z,60.76
2023-05-19T06:58:46.524Z,52.69
2023-05-19T06:59:46.476Z,57.04
2023-05-19T07:00:46.457Z,48.15
2023-05-19T07:01:46.481Z,56.42
2023-05-19T07:02:46.577Z,85.09
2023-05-19T07:03:46.534Z,56.75
2023-05-19T07:04:46.448Z,26.62
2023-05-19T07:05:46.444Z,28.53
2023-05-19T07:06:46.465Z,0.00
2023-05-19T07:07:46.434Z,0.00
2023-05-19T07:08:46.400Z,0.20
2023-05-19T07:10:16.527Z,50.00
2023-05-19T07:11:16.489Z,50.00
2023-05-19T07:12:16.560Z,50.00
2023-05-19T07:13:16.538Z,50.00
2023-05-19T07:14:16.520Z,50.00
2023-05-19T07:15:16.532Z,129.62
2023-05-19T07:16:16.580Z,60.71
2023-05-19T07:17:16.510Z,59.81
2023-05-19T07:18:16.536Z,50.00
2023-05-19T07:19:16.572Z,77.17
2023-05-19T07:20:16.505Z,90.05
2023-05-19T07:21:16.486Z,47.86
2023-05-19T07:22:16.479Z,4.88
2023-05-19T07:23:17.450Z,6.01
2023-05-19T07:24:16.473Z,11.53
2023-05-19T07:25:16.475Z,39.87
2023-05-19T07:26:16.469Z,61.03
2023-05-19T07:27:16.494Z,50.00
2023-05-19T07:28:16.462Z,92.95
2023-05-19T07:29:16.457Z,101.77
2023-05-19T07:30:16.405Z,100.06
2023-05-19T07:31:16.440Z,133.17
2023-05-19T07:32:16.547Z,118.02
2023-05-19T07:33:16.467Z,140.59
2023-05-19T07:34:16.383Z,111.14
2023-05-19T07:35:16.422Z,110.04
2023-05-19T07:36:16.410Z,84.84
2023-05-19T07:37:16.406Z,53.86
2023-05-19T07:38:16.345Z,50.00
2023-05-19T07:39:16.391Z,58.75
2023-05-19T07:40:16.337Z,64.73
2023-05-19T07:41:16.329Z,90.21
2023-05-19T07:42:16.340Z,148.79
2023-05-19T07:43:16.333Z,123.91
2023-05-19T07:44:16.298Z,116.44
2023-05-19T07:45:16.315Z,119.87
2023-05-19T07:46:16.393Z,133.71
2023-05-19T07:47:16.324Z,117.16
2023-05-19T07:48:16.304Z,127.18
2023-05-19T07:49:16.286Z,121.32
2023-05-19T07:50:16.335Z,134.63
2023-05-19T07:51:16.309Z,135.67
2023-05-19T07:52:16.268Z,138.96
2023-05-19T07:53:16.273Z,172.79
2023-05-19T07:54:16.211Z,172.57
2023-05-19T07:55:16.244Z,146.15
2023-05-19T07:56:16.218Z,117.68
2023-05-19T07:57:16.225Z,98.91
2023-05-19T07:58:16.197Z,79.44
2023-05-19T07:59:16.208Z,111.20
2023-05-19T08:00:16.229Z,119.68
2023-05-19T08:01:16.211Z,122.30
2023-05-19T08:02:16.257Z,54.36
2023-05-19T08:03:16.447Z,47.61
2023-05-19T08:04:16.329Z,29.31
2023-05-19T08:05:16.228Z,0.00
2023-05-19T08:06:16.265Z,12.21
2023-05-19T08:07:16.326Z,64.90
2023-05-19T08:08:16.318Z,117.20
2023-05-19T08:09:16.387Z,96.08
2023-05-19T08:10:16.433Z,44.34
2023-05-19T08:11:16.436Z,54.83
2023-05-19T08:12:16.493Z,13.60
2023-05-19T08:13:16.437Z,6.51
2023-05-19T08:14:16.472Z,70.57
2023-05-19T08:15:16.558Z,78.48
2023-05-19T08:16:16.604Z,106.22
2023-05-19T08:17:16.613Z,125.44
2023-05-19T08:18:16.564Z,134.50
2023-05-19T08:19:16.727Z,118.75
2023-05-19T08:20:16.697Z,137.70
2023-05-19T08:21:16.772Z,121.40
2023-05-19T08:22:16.769Z,128.51
2023-05-19T08:23:16.775Z,59.89
2023-05-19T08:24:16.839Z,55.34
2023-05-19T08:25:16.837Z,70.19
2023-05-19T08:26:16.897Z,115.85
2023-05-19T08:27:16.910Z,104.35
2023-05-19T08:28:16.924Z,50.09
2023-05-19T08:29:16.922Z,46.60
2023-05-19T08:30:16.922Z,50.60
2023-05-19T08:31:17.002Z,60.60
2023-05-19T08:32:17.025Z,60.26
2023-05-19T08:33:17.054Z,0.00
2023-05-19T08:34:17.093Z,3.26
2023-05-19T08:35:17.177Z,36.23
2023-05-19T08:36:17.178Z,77.65
2023-05-19T08:37:17.183Z,50.97
2023-05-19T08:38:17.248Z,51.80
2023-05-19T08:39:17.254Z,59.26
2023-05-19T08:40:17.267Z,50.00
2023-05-19T08:41:17.296Z,77.49
2023-05-19T08:42:17.350Z,96.20
2023-05-19T08:43:17.416Z,103.28
2023-05-19T08:44:19.002Z,97.82
2023-05-19T08:45:17.450Z,118.59
2023-05-19T08:46:17.510Z,63.77
2023-05-19T08:47:20.336Z,58.19
2023-05-19T08:48:17.544Z,86.46
2023-05-19T08:49:17.513Z,118.33
2023-05-19T08:50:17.524Z,116.62
2023-05-19T08:51:17.493Z,115.18
2023-05-19T08:52:17.491Z,98.14
2023-05-19T08:53:31.962Z,168.65
2023-05-19T08:54:18.456Z,170.94
2023-05-19T08:55:17.482Z,177.58
2023-05-19T08:56:17.435Z,170.94
2023-05-19T08:57:17.452Z,158.25
2023-05-19T08:58:17.453Z,121.65
2023-05-19T08:59:17.444Z,150.24
2023-05-19T09:00:17.437Z,208.47
2023-05-19T09:01:17.479Z,208.68
2023-05-19T09:02:17.447Z,177.04
2023-05-19T09:03:23.271Z,184.46
2023-05-19T09:04:18.464Z,179.64
2023-05-19T09:05:17.371Z,191.07
2023-05-19T09:06:17.419Z,196.74
2023-05-19T09:07:17.389Z,223.99
2023-05-19T09:08:17.416Z,245.42
2023-05-19T09:09:17.365Z,203.33
2023-05-19T09:10:17.327Z,207.39
2023-05-19T09:11:17.349Z,241.89
2023-05-19T09:12:17.347Z,251.03
2023-05-19T09:13:17.354Z,207.29
2023-05-19T09:14:17.363Z,201.43
2023-05-19T09:15:17.342Z,193.33
2023-05-19T09:16:17.294Z,202.01
2023-05-19T09:17:17.344Z,187.74
2023-05-19T09:18:17.309Z,173.79
2023-05-19T09:19:17.375Z,190.47
2023-05-19T09:20:17.366Z,179.79
2023-05-19T09:21:17.419Z,139.80
2023-05-19T09:22:17.493Z,151.92
2023-05-19T09:23:17.479Z,209.66
2023-05-19T09:24:17.558Z,212.23
2023-05-19T09:25:17.537Z,141.88
2023-05-19T09:26:17.569Z,130.85
2023-05-19T09:27:17.612Z,138.03
2023-05-19T09:28:17.652Z,107.41
2023-05-19T09:29:17.639Z,96.79
2023-05-19T09:30:17.708Z,101.28
2023-05-19T09:31:18.662Z,103.81
2023-05-19T09:32:17.748Z,96.20
2023-05-19T09:33:18.662Z,100.36
2023-05-19T09:34:17.767Z,114.83
2023-05-19T09:35:17.799Z,79.38
2023-05-19T09:36:17.816Z,97.78
2023-05-19T09:37:17.930Z,86.36
2023-05-19T09:38:17.902Z,82.79
2023-05-19T09:39:17.925Z,61.41
2023-05-19T09:40:18.027Z,67.27
2023-05-19T09:41:18.015Z,76.57
2023-05-19T09:42:18.028Z,96.15
2023-05-19T09:43:18.073Z,74.84
2023-05-19T09:44:18.067Z,100.63
2023-05-19T09:45:18.112Z,131.49
2023-05-19T09:46:18.209Z,95.23
2023-05-19T09:47:18.228Z,88.31
2023-05-19T09:48:18.284Z,100.18
2023-05-19T09:49:18.279Z,115.22
2023-05-19T09:50:18.411Z,111.02
2023-05-19T09:51:19.252Z,92.44
2023-05-19T09:52:18.351Z,102.62
2023-05-19T09:53:18.365Z,89.48
2023-05-19T09:54:18.398Z,87.61
2023-05-19T09:55:18.376Z,91.53
2023-05-19T09:56:18.416Z,77.94
2023-05-19T09:57:18.441Z,59.21
2023-05-19T09:58:18.498Z,75.59
2023-05-19T09:59:18.497Z,50.74
2023-05-19T10:00:18.634Z,28.20
2023-05-19T10:01:18.617Z,57.06
2023-05-19T10:02:18.612Z,57.85
2023-05-19T10:03:18.597Z,49.29
2023-05-19T10:04:18.615Z,51.15
2023-05-19T10:05:19.766Z,57.67
2023-05-19T10:06:18.696Z,51.57
2023-05-19T10:07:18.749Z,51.68
2023-05-19T10:08:18.751Z,46.23
2023-05-19T10:09:18.823Z,49.86
2023-05-19T10:10:18.823Z,47.33
2023-05-19T10:11:18.867Z,53.41
2023-05-19T10:12:18.881Z,50.23
2023-05-19T10:13:18.951Z,50.10
2023-05-19T10:14:18.961Z,50.64
2023-05-19T10:15:20.552Z,74.55
2023-05-19T10:16:19.038Z,74.17
2023-05-19T10:17:19.023Z,91.11
2023-05-19T10:18:18.987Z,75.05
2023-05-19T10:19:19.020Z,90.81
2023-05-19T10:20:19.066Z,84.45
2023-05-19T10:21:18.954Z,90.36
2023-05-19T10:22:19.022Z,87.38
2023-05-19T10:23:18.944Z,95.45
2023-05-19T10:24:18.967Z,103.33
2023-05-19T10:25:18.929Z,113.85
2023-05-19T10:26:18.960Z,123.04
2023-05-19T10:27:18.956Z,118.44
2023-05-19T10:28:18.950Z,124.24
2023-05-19T10:29:18.891Z,132.79
2023-05-19T10:30:18.908Z,155.35
2023-05-19T10:31:18.995Z,143.05
2023-05-19T10:32:18.932Z,129.34
2023-05-19T10:33:18.912Z,140.88
2023-05-19T10:34:18.854Z,144.04
2023-05-19T10:35:18.868Z,145.79
2023-05-19T10:36:18.891Z,156.38
2023-05-19T10:37:18.864Z,145.90
2023-05-19T10:38:18.866Z,144.15
2023-05-19T10:39:18.891Z,146.02
2023-05-19T10:40:18.822Z,157.79
2023-05-19T10:41:18.840Z,160.66
2023-05-19T10:42:18.850Z,159.42
2023-05-19T10:43:18.782Z,164.65
2023-05-19T10:44:18.807Z,147.80
2023-05-19T10:45:18.796Z,142.18
2023-05-19T10:46:18.827Z,134.14
2023-05-19T10:47:18.845Z,135.89
2023-05-19T10:48:19.216Z,140.91
2023-05-19T10:49:18.772Z,141.89
2023-05-19T10:50:18.738Z,151.01
2023-05-19T10:51:18.759Z,153.45
2023-05-19T10:52:18.770Z,152.06
2023-05-19T10:53:18.745Z,153.27
2023-05-19T10:54:18.761Z,154.61
2023-05-19T10:55:18.732Z,146.44
2023-05-19T10:56:18.742Z,150.28
2023-05-19T10:57:18.749Z,162.98
2023-05-19T10:58:18.694Z,140.46
2023-05-19T10:59:18.696Z,137.23
2023-05-19T11:00:18.655Z,118.78
2023-05-19T11:01:18.753Z,114.33
2023-05-19T11:02:18.690Z,112.99
2023-05-19T11:03:18.747Z,107.56
2023-05-19T11:04:18.710Z,114.26
2023-05-19T11:05:18.664Z,127.64
2023-05-19T11:06:18.669Z,134.82
2023-05-19T11:07:18.667Z,129.32
2023-05-19T11:08:18.642Z,145.52
2023-05-19T11:09:19.514Z,152.56
2023-05-19T11:10:18.650Z,159.11
2023-05-19T11:11:18.585Z,154.20
2023-05-19T11:12:18.690Z,147.20
2023-05-19T11:13:18.665Z,129.81
2023-05-19T11:14:18.751Z,117.36
2023-05-19T11:15:18.671Z,115.59
2023-05-19T11:16:18.836Z,122.09
2023-05-19T11:17:18.785Z,131.51
2023-05-19T11:18:18.796Z,131.12
2023-05-19T11:19:18.857Z,133.99
2023-05-19T11:20:18.852Z,137.82
2023-05-19T11:21:18.910Z,123.70
2023-05-19T11:22:18.844Z,127.33
2023-05-19T11:23:18.947Z,122.62
2023-05-19T11:24:18.911Z,138.03
2023-05-19T11:25:18.908Z,118.51
2023-05-19T11:26:18.980Z,102.16
2023-05-19T11:27:19.028Z,90.98
2023-05-19T11:28:19.105Z,91.90
2023-05-19T11:29:19.108Z,78.09
2023-05-19T11:30:19.122Z,90.19
2023-05-19T11:31:19.162Z,96.10
2023-05-19T11:32:19.234Z,103.19
2023-05-19T11:33:19.268Z,100.22
2023-05-19T11:34:19.209Z,107.33
2023-05-19T11:35:19.227Z,124.02
2023-05-19T11:36:19.250Z,101.36
2023-05-19T11:37:19.324Z,117.92
2023-05-19T11:38:19.333Z,91.30
2023-05-19T11:39:19.337Z,93.46
2023-05-19T11:40:19.336Z,82.84
2023-05-19T11:41:20.766Z,97.56
2023-05-19T11:42:19.455Z,85.90
2023-05-19T11:43:19.521Z,92.55
2023-05-19T11:44:19.529Z,87.04
2023-05-19T11:45:19.506Z,94.38
2023-05-19T11:46:19.592Z,83.70
2023-05-19T11:47:19.630Z,83.51
2023-05-19T11:48:19.733Z,85.31
2023-05-19T11:49:19.677Z,67.43
2023-05-19T11:50:19.850Z,70.02
2023-05-19T11:51:19.694Z,57.08
2023-05-19T11:52:19.737Z,58.86
2023-05-19T11:53:19.941Z,64.25
2023-05-19T11:54:19.696Z,59.97
2023-05-19T11:55:19.740Z,55.37
2023-05-19T11:56:19.670Z,73.78
2023-05-19T11:57:19.664Z,68.60
2023-05-19T11:58:19.663Z,65.51
2023-05-19T11:59:19.665Z,69.06
2023-05-19T12:00:19.647Z,63.92
2023-05-19T12:01:19.625Z,67.30
2023-05-19T12:02:19.703Z,41.85
2023-05-19T12:03:19.889Z,43.03
2023-05-19T12:04:19.771Z,47.33
2023-05-19T12:05:19.840Z,49.87
2023-05-19T12:06:19.848Z,50.67
2023-05-19T12:07:19.851Z,51.24
2023-05-19T12:08:19.917Z,48.13
2023-05-19T12:09:19.935Z,48.56
2023-05-19T12:10:19.961Z,45.68
2023-05-19T12:11:20.112Z,49.25
2023-05-19T12:12:20.012Z,53.66
2023-05-19T12:13:19.984Z,39.43
2023-05-19T12:14:20.069Z,45.92
2023-05-19T12:15:20.086Z,53.08
2023-05-19T12:16:20.166Z,48.16
2023-05-19T12:17:20.122Z,41.48
2023-05-19T12:18:20.187Z,46.80
2023-05-19T12:19:20.289Z,56.61
2023-05-19T12:20:20.231Z,59.31
2023-05-19T12:21:20.230Z,65.88
2023-05-19T12:22:20.270Z,69.44
2023-05-19T12:23:20.275Z,81.12
2023-05-19T12:24:20.351Z,71.70
2023-05-19T12:25:20.302Z,76.82
2023-05-19T12:26:20.330Z,68.23
2023-05-19T12:27:20.391Z,66.29
2023-05-19T12:28:20.365Z,75.84
2023-05-19T12:29:20.394Z,76.80
2023-05-19T12:30:20.400Z,73.36
2023-05-19T12:31:20.463Z,65.94
2023-05-19T12:32:20.449Z,65.76
2023-05-19T12:33:20.501Z,56.15
2023-05-19T12:34:20.545Z,64.04
2023-05-19T12:35:20.602Z,71.05
2023-05-19T12:36:20.617Z,65.25
2023-05-19T12:37:20.656Z,38.87
2023-05-19T12:38:20.653Z,37.16
2023-05-19T12:39:21.478Z,38.88
2023-05-19T12:40:20.690Z,50.00